Terminal Aerodrome Forecast
Issued by NWS Raleigh/Durham, NC

Home | Current Version | Previous Version | Text Only | Print | Product List | Glossary On
Versions: 1 2 3 4 5 6 7 8 9 10 11 12 13 14 15 16 17 18 19 20 21 22 23 24 25 26 27 28 29 30 31 32 33 34 35 36 37 38 39 40 41 42 43 44 45 46
000
FTUS42 KRAH 271558 AAB
TAFRDU
TAF AMD
KRDU 271558Z 2716/2812 17005KT P6SM VCSH SCT018 BKN250
     FM271800 22009KT P6SM BKN050
     FM280000 19005KT P6SM SCT050 BKN200
     FM281000 21003KT P6SM SCT007 BKN010
      TEMPO 2810/2812 4SM BR BKN007=

USA.gov is the U.S. government's official web portal to all federal, state and local government web resources and services.